EZY45WJ EGAC-EGGW
Flight info
| Callsign | EZY45WJ |
|---|---|
| Flight time | 0h 34m |
| Altitude | 33000 |
| Route | DUFFY L10 RINGA Q39 BABGU DCT ETIGA DCT INKOB Q39 NOMSU UQ4 LISTO |
| Aircraft | A319/M-SDE2E3FGIJ1RWXYZ/LB1 |
Departure
| Time | 2026-05-07 16:32 |
|---|---|
| Airport | George Best Belfast City Airport (EGAC) |
Arrival
| Time | 2026-05-07 17:06 |
|---|---|
| Airport | London Luton Airport (EGGW) |
| Time | Latitude | Longitude | Altitude | Speed | Heading |
|---|---|---|---|---|---|
| 2026-05-07 16:08 | 54.61538 | -5.87098 | 21 ft | 0 kts | 124° |
| 2026-05-07 16:26 | 54.61546 | -5.87118 | 23 ft | 4 kts | 118° |
| 2026-05-07 16:26 | 54.61556 | -5.87160 | 24 ft | 4 kts | 94° |
| 2026-05-07 16:26 | 54.61551 | -5.87199 | 24 ft | 3 kts | 40° |
| 2026-05-07 16:27 | 54.61544 | -5.87208 | 22 ft | 0 kts | 36° |
| 2026-05-07 16:29 | 54.61562 | -5.87186 | 25 ft | 8 kts | 35° |
| 2026-05-07 16:29 | 54.61637 | -5.87097 | 21 ft | 16 kts | 34° |
| 2026-05-07 16:29 | 54.61727 | -5.86993 | 22 ft | 13 kts | 24° |
| 2026-05-07 16:30 | 54.61798 | -5.87088 | 19 ft | 16 kts | 303° |
| 2026-05-07 16:30 | 54.61891 | -5.87157 | 20 ft | 16 kts | 27° |
| 2026-05-07 16:30 | 54.61997 | -5.87027 | 16 ft | 22 kts | 34° |
| 2026-05-07 16:30 | 54.62156 | -5.86839 | 17 ft | 32 kts | 34° |
| 2026-05-07 16:31 | 54.62324 | -5.86639 | 21 ft | 29 kts | 35° |
| 2026-05-07 16:31 | 54.62415 | -5.86470 | 21 ft | 15 kts | 65° |
| 2026-05-07 16:31 | 54.62472 | -5.86467 | 21 ft | 8 kts | 271° |
| 2026-05-07 16:31 | 54.62410 | -5.86536 | 22 ft | 27 kts | 210° |
| 2026-05-07 16:32 | 54.61937 | -5.87088 | 20 ft | 133 kts | 212° |
| 2026-05-07 16:32 | 54.61117 | -5.88030 | 757 ft | 146 kts | 211° |
| 2026-05-07 16:32 | 54.60242 | -5.89068 | 1749 ft | 158 kts | 211° |
| 2026-05-07 16:32 | 54.59168 | -5.89560 | 2417 ft | 185 kts | 177° |
| 2026-05-07 16:33 | 54.57820 | -5.89008 | 3130 ft | 212 kts | 167° |
| 2026-05-07 16:33 | 54.56311 | -5.88311 | 3838 ft | 237 kts | 168° |
| 2026-05-07 16:33 | 54.54757 | -5.87060 | 4565 ft | 259 kts | 141° |
| 2026-05-07 16:33 | 54.53622 | -5.84568 | 5545 ft | 270 kts | 121° |
| 2026-05-07 16:34 | 54.52638 | -5.81778 | 6690 ft | 275 kts | 121° |
| 2026-05-07 16:34 | 54.51643 | -5.78944 | 7816 ft | 279 kts | 121° |
| 2026-05-07 16:34 | 54.50601 | -5.75983 | 8558 ft | 300 kts | 121° |
| 2026-05-07 16:34 | 54.49494 | -5.72857 | 9448 ft | 311 kts | 121° |
| 2026-05-07 16:35 | 54.48319 | -5.69558 | 10094 ft | 333 kts | 122° |
| 2026-05-07 16:35 | 54.47063 | -5.66034 | 10619 ft | 358 kts | 122° |
| 2026-05-07 16:35 | 54.45712 | -5.62254 | 11082 ft | 383 kts | 122° |
| 2026-05-07 16:35 | 54.44269 | -5.58230 | 11458 ft | 408 kts | 122° |
| 2026-05-07 16:36 | 54.42738 | -5.53970 | 11804 ft | 429 kts | 122° |
| 2026-05-07 16:36 | 54.41152 | -5.49561 | 12486 ft | 438 kts | 122° |
| 2026-05-07 16:36 | 54.39542 | -5.45088 | 13269 ft | 443 kts | 122° |
| 2026-05-07 16:36 | 54.37900 | -5.40531 | 13707 ft | 460 kts | 122° |
| 2026-05-07 16:37 | 54.36181 | -5.35773 | 14077 ft | 477 kts | 122° |
| 2026-05-07 16:37 | 54.34391 | -5.30824 | 14325 ft | 498 kts | 122° |
| 2026-05-07 16:37 | 54.32542 | -5.25725 | 14890 ft | 509 kts | 123° |
| 2026-05-07 16:37 | 54.30628 | -5.20467 | 15097 ft | 532 kts | 123° |
| 2026-05-07 16:38 | 54.28631 | -5.14998 | 15380 ft | 550 kts | 123° |
| 2026-05-07 16:38 | 54.26588 | -5.09410 | 15995 ft | 557 kts | 123° |
| 2026-05-07 16:38 | 54.24520 | -5.03762 | 16661 ft | 562 kts | 123° |
| 2026-05-07 16:38 | 54.22437 | -4.98089 | 17306 ft | 566 kts | 123° |
| 2026-05-07 16:39 | 54.20334 | -4.92378 | 17934 ft | 570 kts | 123° |
| 2026-05-07 16:39 | 54.18213 | -4.86635 | 18532 ft | 573 kts | 123° |
| 2026-05-07 16:39 | 54.16080 | -4.80863 | 19110 ft | 577 kts | 123° |
| 2026-05-07 16:39 | 54.13930 | -4.75047 | 19667 ft | 581 kts | 123° |
| 2026-05-07 16:40 | 54.11769 | -4.69213 | 20205 ft | 585 kts | 123° |
| 2026-05-07 16:40 | 54.09587 | -4.63341 | 20713 ft | 588 kts | 123° |
| 2026-05-07 16:40 | 54.07394 | -4.57454 | 21216 ft | 591 kts | 123° |
| 2026-05-07 16:40 | 54.05181 | -4.51534 | 21695 ft | 594 kts | 123° |
| 2026-05-07 16:41 | 54.02953 | -4.45596 | 22155 ft | 597 kts | 123° |
| 2026-05-07 16:41 | 54.00713 | -4.39639 | 22604 ft | 600 kts | 124° |
| 2026-05-07 16:41 | 53.98458 | -4.33657 | 23044 ft | 602 kts | 124° |
| 2026-05-07 16:41 | 53.96192 | -4.27655 | 23460 ft | 605 kts | 124° |
| 2026-05-07 16:42 | 53.93914 | -4.21628 | 23865 ft | 608 kts | 124° |
| 2026-05-07 16:42 | 53.91624 | -4.15582 | 24256 ft | 611 kts | 124° |
| 2026-05-07 16:42 | 53.89318 | -4.09515 | 24631 ft | 613 kts | 124° |
| 2026-05-07 16:42 | 53.86995 | -4.03431 | 24999 ft | 616 kts | 124° |
| 2026-05-07 16:43 | 53.84663 | -3.97337 | 25351 ft | 618 kts | 124° |
| 2026-05-07 16:43 | 53.82322 | -3.91218 | 25700 ft | 620 kts | 124° |
| 2026-05-07 16:43 | 53.79970 | -3.85074 | 26034 ft | 623 kts | 124° |
| 2026-05-07 16:43 | 53.77607 | -3.78927 | 26358 ft | 625 kts | 124° |
| 2026-05-07 16:44 | 53.75228 | -3.72764 | 26671 ft | 627 kts | 124° |
| 2026-05-07 16:44 | 53.72840 | -3.66592 | 27050 ft | 627 kts | 124° |
| 2026-05-07 16:44 | 53.70453 | -3.60439 | 27509 ft | 626 kts | 124° |
| 2026-05-07 16:44 | 53.68066 | -3.54301 | 27959 ft | 625 kts | 124° |
| 2026-05-07 16:45 | 53.65710 | -3.48259 | 28397 ft | 624 kts | 124° |
| 2026-05-07 16:45 | 53.63322 | -3.42152 | 28840 ft | 624 kts | 124° |
| 2026-05-07 16:45 | 53.60935 | -3.36058 | 29288 ft | 623 kts | 125° |
| 2026-05-07 16:45 | 53.58550 | -3.29981 | 29754 ft | 622 kts | 125° |
| 2026-05-07 16:46 | 53.56166 | -3.23917 | 30198 ft | 621 kts | 125° |
| 2026-05-07 16:46 | 53.53783 | -3.17863 | 30649 ft | 620 kts | 125° |
| 2026-05-07 16:46 | 53.51404 | -3.11836 | 31090 ft | 619 kts | 125° |
| 2026-05-07 16:46 | 53.49018 | -3.05816 | 31539 ft | 618 kts | 125° |
| 2026-05-07 16:47 | 53.46635 | -2.99817 | 31993 ft | 617 kts | 125° |
| 2026-05-07 16:47 | 53.44254 | -2.93836 | 32445 ft | 616 kts | 125° |
| 2026-05-07 16:47 | 53.41875 | -2.87873 | 32839 ft | 616 kts | 125° |
| 2026-05-07 16:47 | 53.39487 | -2.81913 | 32983 ft | 615 kts | 125° |
| 2026-05-07 16:48 | 53.37102 | -2.75977 | 33014 ft | 615 kts | 126° |
| 2026-05-07 16:48 | 53.32325 | -2.64116 | 33009 ft | 614 kts | 126° |
| 2026-05-07 16:49 | 53.27534 | -2.52280 | 33010 ft | 615 kts | 126° |
| 2026-05-07 16:49 | 53.22738 | -2.40469 | 33010 ft | 614 kts | 126° |
| 2026-05-07 16:50 | 53.17924 | -2.28684 | 33008 ft | 614 kts | 126° |
| 2026-05-07 16:50 | 53.12379 | -2.18005 | 33004 ft | 605 kts | 143° |
| 2026-05-07 16:50 | 53.09145 | -2.13622 | 33001 ft | 595 kts | 154° |
| 2026-05-07 16:51 | 53.05661 | -2.09995 | 32999 ft | 590 kts | 158° |
| 2026-05-07 16:51 | 52.98665 | -2.02860 | 32982 ft | 590 kts | 157° |
| 2026-05-07 16:52 | 52.91570 | -1.95676 | 33007 ft | 606 kts | 152° |
| 2026-05-07 16:52 | 52.84309 | -1.88372 | 33009 ft | 614 kts | 149° |
| 2026-05-07 16:53 | 52.76995 | -1.81043 | 33009 ft | 615 kts | 149° |
| 2026-05-07 16:53 | 52.69664 | -1.73742 | 33009 ft | 615 kts | 149° |
| 2026-05-07 16:54 | 52.62351 | -1.66433 | 32897 ft | 615 kts | 148° |
| 2026-05-07 16:54 | 52.58771 | -1.62582 | 31853 ft | 617 kts | 145° |
| 2026-05-07 16:54 | 52.55249 | -1.58493 | 30644 ft | 621 kts | 142° |
| 2026-05-07 16:54 | 52.51777 | -1.54263 | 29408 ft | 624 kts | 141° |
| 2026-05-07 16:55 | 52.48300 | -1.49964 | 28104 ft | 625 kts | 142° |
| 2026-05-07 16:55 | 52.44829 | -1.45719 | 26188 ft | 623 kts | 143° |
| 2026-05-07 16:55 | 52.41313 | -1.41525 | 23913 ft | 628 kts | 144° |
| 2026-05-07 16:55 | 52.37762 | -1.37415 | 22253 ft | 620 kts | 144° |
| 2026-05-07 16:56 | 52.34298 | -1.33481 | 20759 ft | 608 kts | 145° |
| 2026-05-07 16:56 | 52.30853 | -1.29599 | 19224 ft | 597 kts | 145° |
| 2026-05-07 16:56 | 52.24125 | -1.21986 | 16502 ft | 577 kts | 144° |
| 2026-05-07 16:57 | 52.20914 | -1.18318 | 16126 ft | 548 kts | 144° |
| 2026-05-07 16:57 | 52.17898 | -1.14862 | 15743 ft | 514 kts | 144° |
| 2026-05-07 16:57 | 52.15065 | -1.11616 | 15439 ft | 480 kts | 144° |
| 2026-05-07 16:57 | 52.12426 | -1.08599 | 15024 ft | 449 kts | 145° |
| 2026-05-07 16:58 | 52.09955 | -1.05786 | 14815 ft | 417 kts | 145° |
| 2026-05-07 16:58 | 52.07669 | -1.03192 | 14578 ft | 385 kts | 145° |
| 2026-05-07 16:58 | 52.05548 | -1.00793 | 14213 ft | 360 kts | 145° |
| 2026-05-07 16:58 | 52.03550 | -0.98536 | 13807 ft | 340 kts | 145° |
| 2026-05-07 16:59 | 52.01655 | -0.96398 | 13413 ft | 324 kts | 145° |
| 2026-05-07 16:59 | 51.99843 | -0.94352 | 12999 ft | 311 kts | 145° |
| 2026-05-07 16:59 | 51.98090 | -0.92372 | 12372 ft | 305 kts | 145° |
| 2026-05-07 16:59 | 51.96323 | -0.90377 | 11600 ft | 312 kts | 146° |
| 2026-05-07 17:00 | 51.94531 | -0.88359 | 10602 ft | 315 kts | 146° |
| 2026-05-07 17:00 | 51.92724 | -0.86326 | 9587 ft | 316 kts | 146° |
| 2026-05-07 17:00 | 51.90918 | -0.84294 | 8521 ft | 316 kts | 147° |
| 2026-05-07 17:00 | 51.89099 | -0.82253 | 7216 ft | 321 kts | 147° |
| 2026-05-07 17:01 | 51.87249 | -0.80183 | 5939 ft | 324 kts | 147° |
| 2026-05-07 17:01 | 51.85448 | -0.77993 | 5045 ft | 317 kts | 137° |
| 2026-05-07 17:01 | 51.84112 | -0.75407 | 4959 ft | 286 kts | 124° |
| 2026-05-07 17:01 | 51.83229 | -0.72671 | 4727 ft | 265 kts | 112° |
| 2026-05-07 17:02 | 51.82734 | -0.69907 | 4464 ft | 249 kts | 101° |
| 2026-05-07 17:02 | 51.82565 | -0.67076 | 4173 ft | 258 kts | 90° |
| 2026-05-07 17:02 | 51.82726 | -0.64223 | 3837 ft | 252 kts | 79° |
| 2026-05-07 17:02 | 51.83163 | -0.61498 | 3505 ft | 248 kts | 74° |
| 2026-05-07 17:03 | 51.83632 | -0.58843 | 3180 ft | 244 kts | 75° |
| 2026-05-07 17:03 | 51.84083 | -0.56269 | 2847 ft | 231 kts | 75° |
| 2026-05-07 17:03 | 51.84506 | -0.53851 | 2546 ft | 217 kts | 75° |
| 2026-05-07 17:03 | 51.84904 | -0.51577 | 2272 ft | 201 kts | 75° |
| 2026-05-07 17:04 | 51.85265 | -0.49505 | 2004 ft | 182 kts | 76° |
| 2026-05-07 17:04 | 51.85580 | -0.47702 | 1777 ft | 157 kts | 76° |
| 2026-05-07 17:04 | 51.85858 | -0.46101 | 1567 ft | 140 kts | 76° |
| 2026-05-07 17:04 | 51.86109 | -0.44655 | 1384 ft | 129 kts | 75° |
| 2026-05-07 17:05 | 51.86345 | -0.43295 | 1210 ft | 122 kts | 77° |
| 2026-05-07 17:05 | 51.86572 | -0.41988 | 1041 ft | 120 kts | 76° |
| 2026-05-07 17:05 | 51.86796 | -0.40701 | 880 ft | 118 kts | 75° |
| 2026-05-07 17:05 | 51.87015 | -0.39437 | 715 ft | 116 kts | 76° |
| 2026-05-07 17:06 | 51.87234 | -0.38172 | 551 ft | 116 kts | 76° |
| 2026-05-07 17:06 | 51.87427 | -0.37054 | 523 ft | 85 kts | 75° |
| 2026-05-07 17:06 | 51.87542 | -0.36378 | 522 ft | 48 kts | 74° |
| 2026-05-07 17:06 | 51.87607 | -0.36013 | 516 ft | 15 kts | 73° |
| 2026-05-07 17:07 | 51.87683 | -0.35920 | 516 ft | 16 kts | 352° |
| 2026-05-07 17:07 | 51.87780 | -0.36017 | 517 ft | 17 kts | 294° |
| 2026-05-07 17:07 | 51.87762 | -0.36202 | 518 ft | 18 kts | 254° |
| 2026-05-07 17:07 | 51.87727 | -0.36404 | 519 ft | 19 kts | 254° |
| 2026-05-07 17:08 | 51.87691 | -0.36612 | 521 ft | 19 kts | 254° |
| 2026-05-07 17:08 | 51.87654 | -0.36822 | 525 ft | 19 kts | 254° |
| 2026-05-07 17:08 | 51.87618 | -0.37036 | 522 ft | 22 kts | 255° |
| 2026-05-07 17:08 | 51.87587 | -0.37213 | 522 ft | 12 kts | 254° |
| 2026-05-07 17:09 | 51.87575 | -0.37292 | 522 ft | 5 kts | 260° |
| 2026-05-07 17:09 | 51.87576 | -0.37328 | 522 ft | 0 kts | 278° |
| 2026-05-07 17:11 | 51.87576 | -0.37331 | 522 ft | 2 kts | 280° |
| 2026-05-07 17:12 | 51.87584 | -0.37383 | 522 ft | 8 kts | 289° |
| 2026-05-07 17:12 | 51.87628 | -0.37458 | 523 ft | 11 kts | 327° |
| 2026-05-07 17:12 | 51.87700 | -0.37565 | 520 ft | 17 kts | 295° |
| 2026-05-07 17:12 | 51.87745 | -0.37723 | 523 ft | 12 kts | 295° |
| 2026-05-07 17:13 | 51.87775 | -0.37830 | 524 ft | 9 kts | 295° |
| 2026-05-07 17:13 | 51.87788 | -0.37871 | 524 ft | 1 kts | 299° |
| 2026-05-07 17:13 | 51.87801 | -0.37878 | 524 ft | 4 kts | 360° |
| 2026-05-07 17:13 | 51.87828 | -0.37853 | 524 ft | 3 kts | 32° |
| 2026-05-07 17:14 | 51.87839 | -0.37843 | 524 ft | 1 kts | 28° |
| 2026-05-07 17:14 | 51.87840 | -0.37843 | 524 ft | 0 kts | 28° |